createdAt,value
2023-02-24T00:01:25.626Z,25.05
2023-02-24T00:03:53.234Z,29.40
2023-02-24T00:06:20.056Z,27.38
2023-02-24T00:08:47.453Z,25.73
2023-02-24T00:11:15.285Z,27.58
2023-02-24T00:13:46.638Z,27.42
2023-02-24T00:16:17.850Z,25.65
2023-02-24T00:18:45.403Z,26.30
2023-02-24T00:21:15.104Z,22.90
2023-02-24T00:23:43.858Z,24.27
2023-02-24T00:26:11.215Z,24.50
2023-02-24T00:28:38.666Z,23.75
2023-02-24T00:31:16.304Z,24.67
2023-02-24T00:33:44.479Z,23.17
2023-02-24T00:36:17.009Z,22.02
2023-02-24T00:38:47.291Z,23.67
2023-02-24T00:41:15.701Z,24.48
2023-02-24T00:43:49.334Z,19.83
2023-02-24T00:46:17.478Z,26.80
2023-02-24T00:48:45.972Z,28.23
2023-02-24T00:51:17.255Z,24.13
2023-02-24T00:53:44.651Z,27.88
2023-02-24T00:56:16.255Z,25.92
2023-02-24T00:58:44.987Z,30.73
2023-02-24T01:01:14.380Z,25.50
2023-02-24T01:03:42.387Z,30.58
2023-02-24T01:06:09.509Z,23.60
2023-02-24T01:08:40.187Z,27.88
2023-02-24T01:11:25.697Z,26.02
2023-02-24T01:16:19.870Z,27.98
2023-02-24T01:18:49.827Z,22.48
2023-02-24T01:21:18.007Z,27.42
2023-02-24T01:23:49.098Z,23.05
2023-02-24T01:26:16.495Z,26.73
2023-02-24T01:28:47.049Z,22.40
2023-02-24T01:31:16.195Z,20.27
2023-02-24T01:33:45.833Z,25.60
2023-02-24T01:36:20.298Z,21.08
2023-02-24T01:38:49.093Z,23.88
2023-02-24T01:41:17.633Z,21.00
2023-02-24T01:44:02.088Z,23.83
2023-02-24T01:46:33.234Z,23.27
2023-02-24T01:49:21.905Z,20.55
2023-02-24T01:51:52.434Z,22.60
2023-02-24T01:54:21.599Z,22.55
2023-02-24T01:56:49.938Z,16.65
2023-02-24T01:59:17.179Z,22.65
2023-02-24T02:01:46.007Z,24.20
2023-02-24T02:04:34.053Z,22.30
2023-02-24T02:07:01.334Z,19.08
2023-02-24T02:09:28.510Z,24.40
2023-02-24T02:11:55.287Z,18.88
2023-02-24T02:14:23.634Z,21.98
2023-02-24T02:17:06.329Z,22.83
2023-02-24T02:20:07.842Z,19.52
2023-02-24T02:22:51.032Z,22.33
2023-02-24T02:25:25.525Z,20.27
2023-02-24T02:28:32.653Z,23.55
2023-02-24T02:31:33.918Z,21.80
2023-02-24T02:34:19.426Z,28.20
2023-02-24T02:39:34.200Z,23.08
2023-02-24T02:42:34.090Z,21.50
2023-02-24T02:45:05.260Z,22.52
2023-02-24T02:47:37.505Z,25.38
2023-02-24T02:50:18.659Z,23.50
2023-02-24T02:53:00.827Z,22.88
2023-02-24T02:55:27.668Z,17.88
2023-02-24T02:57:55.222Z,17.98
2023-02-24T03:00:24.217Z,19.27
2023-02-24T03:02:52.319Z,24.02
2023-02-24T03:05:21.393Z,20.55
2023-02-24T03:07:53.268Z,23.85
2023-02-24T03:10:22.598Z,16.08
2023-02-24T03:12:52.156Z,23.45
2023-02-24T03:15:21.090Z,20.42
2023-02-24T03:17:50.080Z,21.17
2023-02-24T03:20:29.402Z,22.98
2023-02-24T03:23:00.227Z,21.73
2023-02-24T03:25:33.915Z,19.70
2023-02-24T03:28:05.749Z,21.65
2023-02-24T03:30:38.028Z,18.20
2023-02-24T03:33:07.333Z,22.13
2023-02-24T03:35:38.082Z,21.17
2023-02-24T03:38:06.406Z,21.90
2023-02-24T03:40:36.023Z,20.08
2023-02-24T03:43:27.925Z,18.85
2023-02-24T03:45:54.909Z,23.40
2023-02-24T03:48:22.013Z,24.00
2023-02-24T03:50:49.633Z,21.17
2023-02-24T03:53:31.156Z,19.38
2023-02-24T03:56:01.131Z,20.17
2023-02-24T03:58:32.249Z,21.02
2023-02-24T04:01:07.629Z,19.30
2023-02-24T04:04:02.718Z,21.90
2023-02-24T04:06:44.627Z,18.60
2023-02-24T04:09:36.103Z,23.27
2023-02-24T04:12:05.176Z,23.33
2023-02-24T04:14:34.677Z,24.50
2023-02-24T04:17:07.933Z,21.77
2023-02-24T04:19:38.479Z,28.77
2023-02-24T04:22:06.711Z,25.73
2023-02-24T04:24:33.807Z,23.13
2023-02-24T04:27:01.221Z,19.67
2023-02-24T04:29:35.436Z,23.98
2023-02-24T04:32:09.793Z,20.95
2023-02-24T04:34:37.548Z,21.83
2023-02-24T04:37:04.304Z,21.35
2023-02-24T04:39:31.508Z,22.85
2023-02-24T04:42:01.726Z,21.70
2023-02-24T04:44:29.189Z,19.40
2023-02-24T04:46:56.576Z,21.20
2023-02-24T04:49:23.711Z,23.52
2023-02-24T04:51:51.628Z,20.25
2023-02-24T04:54:20.118Z,23.45
2023-02-24T04:56:50.939Z,21.88
2023-02-24T04:59:19.073Z,23.85
2023-02-24T05:01:45.912Z,19.08
2023-02-24T05:04:14.082Z,20.58
2023-02-24T05:06:43.982Z,22.98
2023-02-24T05:09:15.029Z,21.85
2023-02-24T05:11:42.620Z,23.55
2023-02-24T05:14:16.287Z,22.27
2023-02-24T05:16:43.749Z,21.05
2023-02-24T05:19:30.567Z,22.40
2023-02-24T05:22:00.153Z,20.95
2023-02-24T05:24:29.142Z,20.02
2023-02-24T05:26:59.750Z,27.80
2023-02-24T05:29:28.472Z,24.63
2023-02-24T05:31:59.651Z,21.02
2023-02-24T05:34:27.520Z,20.60
2023-02-24T05:36:54.294Z,20.40
2023-02-24T05:39:21.686Z,21.80
2023-02-24T05:41:49.527Z,22.30
2023-02-24T05:44:22.633Z,20.45
2023-02-24T05:46:51.307Z,23.35
2023-02-24T05:49:27.400Z,27.55
2023-02-24T05:51:58.065Z,23.80
2023-02-24T05:54:29.528Z,24.08
2023-02-24T05:57:00.416Z,24.33
2023-02-24T05:59:32.631Z,25.13
2023-02-24T06:02:00.828Z,25.20
2023-02-24T06:04:39.404Z,23.35
2023-02-24T06:07:19.361Z,22.05
2023-02-24T06:09:53.860Z,24.23
2023-02-24T06:12:21.754Z,21.63
2023-02-24T06:14:49.018Z,26.88
2023-02-24T06:17:17.073Z,25.67
2023-02-24T06:19:45.254Z,23.10
2023-02-24T06:22:13.185Z,27.40
2023-02-24T06:24:46.191Z,23.90
2023-02-24T06:27:17.894Z,25.45
2023-02-24T06:29:54.870Z,25.50
2023-02-24T06:32:23.990Z,27.45
2023-02-24T06:34:51.788Z,29.15
2023-02-24T06:37:18.592Z,25.75
2023-02-24T06:39:45.870Z,23.40
2023-02-24T06:42:12.882Z,22.33
2023-02-24T06:44:40.714Z,29.25
2023-02-24T06:47:08.643Z,22.33
2023-02-24T06:49:35.699Z,25.05
2023-02-24T06:52:03.257Z,21.08
2023-02-24T06:54:30.914Z,23.50
2023-02-24T06:57:00.819Z,28.58
2023-02-24T06:59:28.660Z,28.45
2023-02-24T07:01:56.344Z,31.15
2023-02-24T07:04:27.741Z,30.25
2023-02-24T07:06:57.330Z,29.55
2023-02-24T07:09:25.666Z,28.27
2023-02-24T07:11:53.313Z,32.13
2023-02-24T07:14:21.344Z,33.55
2023-02-24T07:16:52.640Z,32.90
2023-02-24T07:19:22.444Z,34.25
2023-02-24T07:21:52.860Z,37.38
2023-02-24T07:24:33.130Z,35.85
2023-02-24T07:27:01.380Z,38.58
2023-02-24T07:29:30.322Z,38.25
2023-02-24T07:32:05.767Z,40.60
2023-02-24T07:34:33.783Z,38.42
2023-02-24T07:37:02.745Z,43.20
2023-02-24T07:39:29.865Z,42.10
2023-02-24T07:41:57.230Z,38.25
2023-02-24T07:44:24.625Z,38.28
2023-02-24T07:46:51.625Z,39.47
2023-02-24T07:49:20.629Z,36.72
2023-02-24T07:51:52.804Z,34.95
2023-02-24T07:54:21.369Z,36.42
2023-02-24T07:56:56.519Z,37.13
2023-02-24T07:59:32.619Z,36.00
2023-02-24T08:02:00.577Z,36.08
2023-02-24T08:04:30.071Z,39.60
2023-02-24T08:06:58.732Z,41.47
2023-02-24T08:09:45.940Z,41.67
2023-02-24T08:12:21.948Z,38.60
2023-02-24T08:14:52.292Z,39.30
2023-02-24T08:17:23.526Z,37.20
2023-02-24T08:20:01.106Z,38.63
2023-02-24T08:22:36.015Z,41.35
2023-02-24T08:27:38.799Z,34.00
2023-02-24T08:30:07.763Z,35.78
2023-02-24T08:32:37.398Z,34.80
2023-02-24T08:35:05.891Z,35.88
2023-02-24T08:37:39.799Z,37.95
2023-02-24T08:40:18.559Z,39.90
2023-02-24T08:42:45.371Z,36.53
2023-02-24T08:45:14.382Z,39.78
2023-02-24T08:47:42.099Z,36.03
2023-02-24T08:50:10.238Z,37.63
2023-02-24T08:52:39.205Z,38.85
2023-02-24T08:55:10.674Z,39.83
2023-02-24T08:57:37.454Z,38.10
2023-02-24T09:00:07.110Z,38.78
2023-02-24T09:02:39.528Z,40.13
2023-02-24T09:05:12.483Z,43.85
2023-02-24T09:07:41.379Z,40.80
2023-02-24T09:10:17.767Z,38.10
2023-02-24T09:12:44.893Z,39.70
2023-02-24T09:15:15.402Z,37.80
2023-02-24T09:17:46.126Z,39.83
2023-02-24T09:20:27.889Z,41.55
2023-02-24T09:23:00.674Z,40.53
2023-02-24T09:25:40.846Z,40.55
2023-02-24T09:28:21.233Z,39.83
2023-02-24T09:30:55.375Z,41.55
2023-02-24T09:33:41.830Z,48.80
2023-02-24T09:36:10.140Z,42.55
2023-02-24T09:39:00.136Z,42.45
2023-02-24T09:42:07.600Z,41.58
2023-02-24T09:44:46.049Z,42.85
2023-02-24T09:47:20.036Z,41.90
2023-02-24T09:49:56.395Z,42.20
2023-02-24T09:52:39.797Z,42.50
2023-02-24T09:55:25.654Z,41.53
2023-02-24T09:58:18.221Z,41.45
2023-02-24T10:01:21.134Z,41.90
2023-02-24T10:04:14.945Z,42.80
2023-02-24T10:07:09.129Z,44.90
2023-02-24T10:09:41.731Z,45.78
2023-02-24T10:12:13.787Z,47.88
2023-02-24T10:15:20.143Z,47.92
2023-02-24T10:18:29.013Z,44.28
2023-02-24T10:21:09.745Z,45.70
2023-02-24T10:23:45.790Z,50.10
2023-02-24T10:26:31.871Z,49.97
2023-02-24T10:31:35.518Z,48.03
2023-02-24T10:34:07.890Z,52.08
2023-02-24T10:36:35.645Z,47.88
2023-02-24T10:39:27.027Z,49.30
2023-02-24T10:41:58.964Z,46.05
2023-02-24T10:44:36.501Z,49.33
2023-02-24T10:47:13.420Z,47.70
2023-02-24T10:49:57.185Z,45.10
2023-02-24T10:52:43.074Z,47.28
2023-02-24T10:55:28.372Z,49.05
2023-02-24T10:58:07.627Z,47.20
2023-02-24T11:00:59.955Z,45.20
2023-02-24T11:03:42.287Z,46.00
2023-02-24T11:06:42.035Z,43.28
2023-02-24T11:09:27.307Z,38.25
2023-02-24T11:12:13.894Z,40.50
2023-02-24T11:15:13.210Z,42.13
2023-02-24T11:17:54.252Z,42.05
2023-02-24T11:20:48.061Z,39.10
2023-02-24T11:23:24.732Z,38.92
2023-02-24T11:25:53.627Z,45.00
2023-02-24T11:28:32.492Z,41.53
2023-02-24T11:31:26.259Z,45.47
2023-02-24T11:34:18.172Z,43.83
2023-02-24T11:36:58.185Z,37.97
2023-02-24T11:39:39.358Z,41.33
2023-02-24T11:42:11.403Z,41.65
2023-02-24T11:44:41.419Z,46.03
2023-02-24T11:47:15.488Z,43.80
2023-02-24T11:50:21.374Z,50.45
2023-02-24T11:52:48.485Z,38.17
2023-02-24T11:55:40.163Z,40.95
2023-02-24T11:58:48.682Z,44.40
2023-02-24T12:01:24.414Z,42.88
2023-02-24T12:04:10.358Z,49.28
2023-02-24T12:07:10.679Z,42.83
2023-02-24T12:10:06.920Z,45.78
2023-02-24T12:12:53.394Z,46.83
2023-02-24T12:15:35.583Z,41.83
2023-02-24T12:18:42.675Z,47.28
2023-02-24T12:21:15.112Z,47.28
2023-02-24T12:23:44.395Z,46.35
2023-02-24T12:26:42.816Z,46.88
2023-02-24T12:29:45.102Z,54.75
2023-02-24T12:32:30.325Z,53.33
2023-02-24T12:35:19.928Z,52.72
2023-02-24T12:38:09.473Z,45.15
2023-02-24T12:40:48.135Z,54.85
2023-02-24T12:43:45.200Z,50.30
2023-02-24T12:46:30.742Z,40.15
2023-02-24T12:49:30.123Z,47.75
2023-02-24T12:52:39.710Z,51.35
2023-02-24T12:55:23.652Z,45.42
2023-02-24T12:58:17.883Z,40.65
2023-02-24T13:01:04.909Z,39.20
2023-02-24T13:03:55.128Z,40.17
2023-02-24T13:06:47.370Z,38.53
2023-02-24T13:09:21.147Z,41.67
2023-02-24T13:11:51.166Z,41.13
2023-02-24T13:14:23.838Z,35.47
2023-02-24T13:16:50.936Z,56.58
2023-02-24T13:19:22.303Z,51.45
2023-02-24T13:21:56.444Z,41.67
2023-02-24T13:24:23.934Z,42.97
2023-02-24T13:26:51.029Z,42.75
2023-02-24T13:29:17.888Z,37.75
2023-02-24T13:31:49.633Z,38.70
2023-02-24T13:34:33.104Z,40.70
2023-02-24T13:37:00.250Z,41.45
2023-02-24T13:39:38.332Z,42.35
2023-02-24T13:42:25.969Z,41.50
2023-02-24T13:45:03.026Z,41.17
2023-02-24T13:48:11.657Z,41.33
2023-02-24T13:50:52.236Z,36.47
2023-02-24T13:53:25.569Z,42.78
2023-02-24T13:55:58.694Z,35.42
2023-02-24T13:58:32.055Z,40.35
2023-02-24T14:01:14.056Z,39.25
2023-02-24T14:03:43.784Z,36.00
2023-02-24T14:06:26.000Z,41.55
2023-02-24T14:08:55.045Z,38.95
2023-02-24T14:11:26.153Z,37.03
2023-02-24T14:13:54.191Z,43.40
2023-02-24T14:16:29.408Z,35.30
2023-02-24T14:18:58.132Z,40.80
2023-02-24T14:21:26.753Z,38.70
2023-02-24T14:24:01.714Z,36.58
2023-02-24T14:26:30.408Z,33.72
2023-02-24T14:29:00.691Z,35.38
2023-02-24T14:31:27.818Z,37.00
2023-02-24T14:33:58.281Z,32.88
2023-02-24T14:36:29.322Z,33.60
2023-02-24T14:39:19.280Z,34.25
2023-02-24T14:41:46.565Z,36.63
2023-02-24T14:44:29.200Z,35.88
2023-02-24T14:46:57.817Z,36.25
2023-02-24T14:49:27.273Z,33.80
2023-02-24T14:52:09.674Z,31.77
2023-02-24T14:54:36.729Z,36.05
2023-02-24T14:57:03.488Z,35.50
2023-02-24T14:59:37.849Z,33.03
2023-02-24T15:02:05.420Z,29.05
2023-02-24T15:04:37.585Z,31.42
2023-02-24T15:07:06.790Z,27.05
2023-02-24T15:09:41.958Z,27.52
2023-02-24T15:13:00.745Z,23.58
2023-02-24T15:15:29.754Z,22.52
2023-02-24T15:18:04.131Z,21.70
2023-02-24T15:20:36.408Z,23.63
2023-02-24T15:23:03.270Z,23.88
2023-02-24T15:25:42.330Z,17.35
2023-02-24T15:28:32.048Z,21.08
2023-02-24T15:31:08.523Z,18.88
2023-02-24T15:33:41.759Z,22.00
2023-02-24T15:36:17.255Z,20.48
2023-02-24T15:38:44.439Z,24.65
2023-02-24T15:41:12.398Z,19.08
2023-02-24T15:43:46.428Z,18.83
2023-02-24T15:46:30.695Z,20.43
2023-02-24T15:49:01.743Z,18.38
2023-02-24T15:51:33.966Z,20.40
2023-02-24T15:54:01.447Z,17.08
2023-02-24T15:56:28.879Z,17.67
2023-02-24T15:58:55.662Z,17.92
2023-02-24T16:01:22.782Z,25.23
2023-02-24T16:03:49.804Z,22.77
2023-02-24T16:06:21.245Z,23.33
2023-02-24T16:08:48.581Z,23.38
2023-02-24T16:11:17.166Z,21.95
2023-02-24T16:13:45.440Z,29.00
2023-02-24T16:16:12.912Z,21.67
2023-02-24T16:18:39.728Z,25.23
2023-02-24T16:21:07.007Z,29.15
2023-02-24T16:23:40.313Z,25.40
2023-02-24T16:26:12.927Z,25.95
2023-02-24T16:28:39.706Z,28.17
2023-02-24T16:31:07.440Z,31.23
2023-02-24T16:33:51.934Z,30.40
2023-02-24T16:36:23.439Z,32.38
2023-02-24T16:38:51.773Z,28.17
2023-02-24T16:41:18.980Z,28.10
2023-02-24T16:43:45.795Z,27.25
2023-02-24T16:46:18.155Z,26.70
2023-02-24T16:48:46.181Z,24.13
2023-02-24T16:51:13.391Z,24.08
2023-02-24T16:53:40.377Z,21.45
2023-02-24T16:56:07.887Z,21.83
2023-02-24T16:58:34.727Z,18.13
2023-02-24T17:01:02.870Z,18.45
2023-02-24T17:03:42.699Z,19.90
2023-02-24T17:06:09.848Z,21.08
2023-02-24T17:08:36.802Z,23.17
2023-02-24T17:11:03.962Z,22.25
2023-02-24T17:13:30.758Z,24.42
2023-02-24T17:15:58.055Z,23.83
2023-02-24T17:18:25.087Z,23.85
2023-02-24T17:20:52.262Z,25.17
2023-02-24T17:23:19.283Z,27.15
2023-02-24T17:25:47.464Z,24.63
2023-02-24T17:28:14.223Z,28.00
2023-02-24T17:30:41.440Z,23.92
2023-02-24T17:33:08.412Z,27.27
2023-02-24T17:35:35.511Z,33.80
2023-02-24T17:38:02.717Z,27.65
2023-02-24T17:40:29.846Z,29.98
2023-02-24T17:42:56.582Z,32.42
2023-02-24T17:45:23.598Z,33.00
2023-02-24T17:47:52.716Z,32.30
2023-02-24T17:50:19.827Z,31.70
2023-02-24T17:52:46.743Z,33.50
2023-02-24T17:55:13.925Z,34.95
2023-02-24T17:57:40.789Z,36.55
2023-02-24T18:00:08.687Z,30.40
2023-02-24T18:02:35.605Z,32.40
2023-02-24T18:05:02.868Z,33.90
2023-02-24T18:07:29.822Z,30.27
2023-02-24T18:09:56.997Z,35.45
2023-02-24T18:12:24.684Z,35.17
2023-02-24T18:15:06.990Z,37.08
2023-02-24T18:17:35.735Z,31.02
2023-02-24T18:20:03.978Z,37.60
2023-02-24T18:22:30.782Z,36.50
2023-02-24T18:24:59.176Z,37.50
2023-02-24T18:27:26.049Z,38.45
2023-02-24T18:29:53.907Z,39.60
2023-02-24T18:32:20.917Z,41.45
2023-02-24T18:34:48.286Z,41.13
2023-02-24T18:37:15.117Z,45.25
2023-02-24T18:39:42.304Z,54.75
2023-02-24T18:42:09.688Z,61.60
2023-02-24T18:44:36.805Z,67.88
2023-02-24T18:47:09.341Z,66.18
2023-02-24T18:49:36.952Z,81.13
2023-02-24T18:52:05.386Z,79.65
2023-02-24T18:54:33.342Z,77.15
2023-02-24T18:57:00.111Z,81.18
2023-02-24T18:59:27.180Z,87.40
2023-02-24T19:01:56.713Z,84.35
2023-02-24T19:04:24.262Z,81.70
2023-02-24T19:06:51.057Z,77.57
2023-02-24T19:09:21.809Z,75.15
2023-02-24T19:11:49.642Z,72.45
2023-02-24T19:14:16.865Z,74.10
2023-02-24T19:16:43.754Z,61.60
2023-02-24T19:19:13.533Z,66.97
2023-02-24T19:21:40.307Z,59.08
2023-02-24T19:24:08.462Z,52.97
2023-02-24T19:26:35.382Z,57.40
2023-02-24T19:29:03.895Z,51.95
2023-02-24T19:31:31.235Z,47.78
2023-02-24T19:34:03.073Z,47.20
2023-02-24T19:36:30.727Z,44.17
2023-02-24T19:38:57.893Z,43.75
2023-02-24T19:41:24.734Z,40.00
2023-02-24T19:43:52.076Z,42.20
2023-02-24T19:46:19.048Z,41.58
2023-02-24T19:48:46.235Z,40.58
2023-02-24T19:51:17.491Z,37.28
2023-02-24T19:53:44.652Z,35.50
2023-02-24T19:56:11.630Z,35.28
2023-02-24T19:58:38.870Z,35.28
2023-02-24T20:01:10.206Z,38.05
2023-02-24T20:03:38.248Z,35.05
2023-02-24T20:06:05.385Z,35.45
2023-02-24T20:08:34.663Z,31.40
2023-02-24T20:11:02.430Z,31.52
2023-02-24T20:13:29.873Z,35.95
2023-02-24T20:16:12.971Z,32.95
2023-02-24T20:18:40.682Z,35.20
2023-02-24T20:21:07.792Z,33.95
2023-02-24T20:23:35.009Z,33.25
2023-02-24T20:26:02.024Z,34.20
2023-02-24T20:28:29.452Z,38.53
2023-02-24T20:30:57.402Z,38.15
2023-02-24T20:33:24.894Z,35.25
2023-02-24T20:35:51.646Z,39.38
2023-02-24T20:38:18.770Z,40.83
2023-02-24T20:40:45.552Z,37.95
2023-02-24T20:43:12.645Z,34.97
2023-02-24T20:45:40.921Z,31.05
2023-02-24T20:48:08.888Z,28.30
2023-02-24T20:50:36.054Z,34.20
2023-02-24T20:53:04.299Z,22.20
2023-02-24T20:55:31.356Z,23.20
2023-02-24T20:57:58.454Z,19.42
2023-02-24T21:00:25.591Z,20.42
2023-02-24T21:02:52.931Z,17.23
2023-02-24T21:05:21.531Z,17.88
2023-02-24T21:07:49.896Z,18.00
2023-02-24T21:10:17.713Z,18.90
2023-02-24T21:12:45.228Z,17.30
2023-02-24T21:15:12.434Z,17.90
2023-02-24T21:17:39.880Z,14.05
2023-02-24T21:20:11.177Z,14.27
2023-02-24T21:22:39.355Z,12.57
2023-02-24T21:25:10.885Z,11.30
2023-02-24T21:27:38.411Z,13.07
2023-02-24T21:30:06.461Z,12.32
2023-02-24T21:32:33.914Z,16.05
2023-02-24T21:35:00.725Z,10.82
2023-02-24T21:37:28.041Z,12.07
2023-02-24T21:39:54.767Z,10.38
2023-02-24T21:42:22.508Z,10.38
2023-02-24T21:44:52.106Z,12.55
2023-02-24T21:47:20.425Z,9.20
2023-02-24T21:49:47.209Z,12.82
2023-02-24T21:52:14.343Z,12.02
2023-02-24T21:54:42.335Z,15.82
2023-02-24T21:57:09.371Z,14.98
2023-02-24T21:59:36.144Z,15.73
2023-02-24T22:02:03.313Z,11.40
2023-02-24T22:04:30.137Z,16.90
2023-02-24T22:06:57.203Z,17.90
2023-02-24T22:09:23.966Z,14.98
2023-02-24T22:11:51.124Z,16.27
2023-02-24T22:14:18.119Z,13.60
2023-02-24T22:16:45.246Z,13.77
2023-02-24T22:19:12.040Z,17.17
2023-02-24T22:21:41.686Z,11.30
2023-02-24T22:24:10.048Z,12.75
2023-02-24T22:26:37.277Z,17.13
2023-02-24T22:29:04.952Z,13.10
2023-02-24T22:31:32.721Z,12.48
2023-02-24T22:33:59.903Z,9.48
2023-02-24T22:36:28.797Z,10.73
2023-02-24T22:38:56.417Z,10.88
2023-02-24T22:41:25.806Z,12.30
2023-02-24T22:43:53.992Z,11.48
2023-02-24T22:46:32.222Z,10.55
2023-02-24T22:48:59.124Z,9.95
2023-02-24T22:51:26.646Z,9.57
2023-02-24T22:53:53.670Z,10.65
2023-02-24T22:56:22.890Z,10.23
2023-02-24T22:58:50.099Z,11.45
2023-02-24T23:01:22.276Z,10.00
2023-02-24T23:03:49.410Z,10.10
2023-02-24T23:06:21.890Z,9.35
2023-02-24T23:08:49.641Z,8.02
2023-02-24T23:11:21.634Z,8.85
2023-02-24T23:13:49.225Z,9.55
2023-02-24T23:16:18.632Z,7.63
2023-02-24T23:18:56.289Z,8.18
2023-02-24T23:21:24.947Z,7.30
2023-02-24T23:23:56.930Z,9.38
2023-02-24T23:26:31.839Z,6.90
2023-02-24T23:28:58.715Z,8.85
2023-02-24T23:31:25.825Z,10.38
2023-02-24T23:33:53.590Z,9.52
2023-02-24T23:36:22.197Z,9.77
2023-02-24T23:38:49.257Z,8.65
2023-02-24T23:41:16.554Z,7.63
2023-02-24T23:43:43.425Z,9.43
2023-02-24T23:46:11.515Z,7.00
2023-02-24T23:48:38.719Z,6.78
2023-02-24T23:51:07.137Z,9.82
2023-02-24T23:53:41.279Z,11.25
2023-02-24T23:56:09.752Z,10.87
2023-02-24T23:58:37.339Z,10.05
